sensor_id;sensor_type;location;lat;lon;timestamp;P1;durP1;ratioP1;P2;durP2;ratioP2
40286;SDS011;25998;46.604;13.610;2022-09-09T00:00:14;2.50;;;1.40;;
40286;SDS011;25998;46.604;13.610;2022-09-09T00:03:27;3.10;;;1.65;;
40286;SDS011;25998;46.604;13.610;2022-09-09T00:10:29;3.45;;;1.67;;
40286;SDS011;25998;46.604;13.610;2022-09-09T00:13:46;3.40;;;1.60;;
40286;SDS011;25998;46.604;13.610;2022-09-09T00:17:04;2.55;;;1.95;;
40286;SDS011;25998;46.604;13.610;2022-09-09T00:23:56;2.33;;;1.52;;
40286;SDS011;25998;46.604;13.610;2022-09-09T00:27:20;2.85;;;1.70;;
40286;SDS011;25998;46.604;13.610;2022-09-09T00:30:53;3.25;;;1.70;;
40286;SDS011;25998;46.604;13.610;2022-09-09T00:37:26;4.18;;;1.58;;
40286;SDS011;25998;46.604;13.610;2022-09-09T00:47:50;3.75;;;1.90;;
40286;SDS011;25998;46.604;13.610;2022-09-09T00:51:11;4.65;;;1.90;;
40286;SDS011;25998;46.604;13.610;2022-09-09T00:55:06;4.40;;;1.80;;
40286;SDS011;25998;46.604;13.610;2022-09-09T00:58:19;4.55;;;1.80;;
40286;SDS011;25998;46.604;13.610;2022-09-09T01:01:30;2.00;;;1.40;;
40286;SDS011;25998;46.604;13.610;2022-09-09T01:04:41;5.10;;;1.60;;
40286;SDS011;25998;46.604;13.610;2022-09-09T01:07:52;3.88;;;1.80;;
40286;SDS011;25998;46.604;13.610;2022-09-09T01:11:04;3.15;;;1.60;;
40286;SDS011;25998;46.604;13.610;2022-09-09T01:14:38;3.17;;;1.65;;
40286;SDS011;25998;46.604;13.610;2022-09-09T01:21:35;4.97;;;2.03;;
40286;SDS011;25998;46.604;13.610;2022-09-09T01:28:35;3.45;;;1.75;;
40286;SDS011;25998;46.604;13.610;2022-09-09T01:32:01;5.00;;;1.80;;
40286;SDS011;25998;46.604;13.610;2022-09-09T01:35:37;4.97;;;1.90;;
40286;SDS011;25998;46.604;13.610;2022-09-09T01:38:54;2.85;;;1.60;;
40286;SDS011;25998;46.604;13.610;2022-09-09T01:42:06;4.72;;;1.73;;
40286;SDS011;25998;46.604;13.610;2022-09-09T01:45:19;6.10;;;2.10;;
40286;SDS011;25998;46.604;13.610;2022-09-09T01:48:31;3.17;;;2.00;;
40286;SDS011;25998;46.604;13.610;2022-09-09T01:51:43;6.20;;;2.67;;
40286;SDS011;25998;46.604;13.610;2022-09-09T01:54:56;4.03;;;2.55;;
40286;SDS011;25998;46.604;13.610;2022-09-09T02:04:54;6.85;;;2.40;;
40286;SDS011;25998;46.604;13.610;2022-09-09T02:11:31;4.50;;;2.55;;
40286;SDS011;25998;46.604;13.610;2022-09-09T02:14:47;5.38;;;2.90;;
40286;SDS011;25998;46.604;13.610;2022-09-09T02:18:07;4.47;;;2.80;;
40286;SDS011;25998;46.604;13.610;2022-09-09T02:21:20;3.47;;;2.80;;
40286;SDS011;25998;46.604;13.610;2022-09-09T02:24:35;5.03;;;3.35;;
40286;SDS011;25998;46.604;13.610;2022-09-09T02:27:48;3.72;;;2.60;;
40286;SDS011;25998;46.604;13.610;2022-09-09T02:31:01;4.50;;;2.95;;
40286;SDS011;25998;46.604;13.610;2022-09-09T02:34:12;2.90;;;2.50;;
40286;SDS011;25998;46.604;13.610;2022-09-09T02:37:27;3.92;;;2.22;;
40286;SDS011;25998;46.604;13.610;2022-09-09T02:40:45;6.55;;;2.55;;
40286;SDS011;25998;46.604;13.610;2022-09-09T02:43:56;4.68;;;2.53;;
40286;SDS011;25998;46.604;13.610;2022-09-09T02:50:44;4.20;;;2.13;;
40286;SDS011;25998;46.604;13.610;2022-09-09T02:54:12;4.43;;;2.80;;
40286;SDS011;25998;46.604;13.610;2022-09-09T02:57:38;5.53;;;2.15;;
40286;SDS011;25998;46.604;13.610;2022-09-09T03:00:50;4.07;;;2.35;;
40286;SDS011;25998;46.604;13.610;2022-09-09T03:04:03;3.60;;;2.13;;
40286;SDS011;25998;46.604;13.610;2022-09-09T03:07:15;4.00;;;2.47;;
40286;SDS011;25998;46.604;13.610;2022-09-09T03:10:27;6.00;;;2.13;;
40286;SDS011;25998;46.604;13.610;2022-09-09T03:13:37;2.78;;;1.80;;
40286;SDS011;25998;46.604;13.610;2022-09-09T03:16:51;4.35;;;2.60;;
40286;SDS011;25998;46.604;13.610;2022-09-09T03:20:03;5.28;;;2.78;;
40286;SDS011;25998;46.604;13.610;2022-09-09T03:23:14;4.10;;;2.90;;
40286;SDS011;25998;46.604;13.610;2022-09-09T03:26:25;2.65;;;2.30;;
40286;SDS011;25998;46.604;13.610;2022-09-09T03:29:36;4.93;;;3.35;;
40286;SDS011;25998;46.604;13.610;2022-09-09T03:32:47;5.18;;;3.75;;
40286;SDS011;25998;46.604;13.610;2022-09-09T03:35:58;4.25;;;3.30;;
40286;SDS011;25998;46.604;13.610;2022-09-09T03:39:08;6.28;;;3.40;;
40286;SDS011;25998;46.604;13.610;2022-09-09T03:42:20;5.05;;;3.22;;
40286;SDS011;25998;46.604;13.610;2022-09-09T03:45:31;4.22;;;2.42;;
40286;SDS011;25998;46.604;13.610;2022-09-09T03:48:42;3.65;;;2.53;;
40286;SDS011;25998;46.604;13.610;2022-09-09T03:51:55;3.08;;;1.80;;
40286;SDS011;25998;46.604;13.610;2022-09-09T03:55:07;2.92;;;2.28;;
40286;SDS011;25998;46.604;13.610;2022-09-09T03:58:18;4.28;;;2.15;;
40286;SDS011;25998;46.604;13.610;2022-09-09T04:01:29;4.55;;;2.58;;
40286;SDS011;25998;46.604;13.610;2022-09-09T04:04:40;5.50;;;2.65;;
40286;SDS011;25998;46.604;13.610;2022-09-09T04:07:50;3.75;;;2.40;;
40286;SDS011;25998;46.604;13.610;2022-09-09T04:11:02;4.85;;;2.78;;
40286;SDS011;25998;46.604;13.610;2022-09-09T04:14:16;3.33;;;2.33;;
40286;SDS011;25998;46.604;13.610;2022-09-09T04:17:27;3.00;;;2.30;;
40286;SDS011;25998;46.604;13.610;2022-09-09T04:20:38;3.42;;;2.10;;
40286;SDS011;25998;46.604;13.610;2022-09-09T04:23:49;3.50;;;2.30;;
40286;SDS011;25998;46.604;13.610;2022-09-09T04:27:01;4.75;;;2.22;;
40286;SDS011;25998;46.604;13.610;2022-09-09T04:30:12;3.63;;;2.28;;
40286;SDS011;25998;46.604;13.610;2022-09-09T04:33:23;5.40;;;2.20;;
40286;SDS011;25998;46.604;13.610;2022-09-09T04:36:38;5.10;;;2.50;;
40286;SDS011;25998;46.604;13.610;2022-09-09T04:39:50;3.10;;;2.20;;
40286;SDS011;25998;46.604;13.610;2022-09-09T04:43:02;4.03;;;2.15;;
40286;SDS011;25998;46.604;13.610;2022-09-09T04:46:16;3.08;;;2.40;;
40286;SDS011;25998;46.604;13.610;2022-09-09T04:49:29;4.97;;;2.55;;
40286;SDS011;25998;46.604;13.610;2022-09-09T04:52:41;4.82;;;2.50;;
40286;SDS011;25998;46.604;13.610;2022-09-09T04:56:00;5.80;;;2.70;;
40286;SDS011;25998;46.604;13.610;2022-09-09T04:59:20;6.70;;;2.55;;
40286;SDS011;25998;46.604;13.610;2022-09-09T05:02:31;5.03;;;2.47;;
40286;SDS011;25998;46.604;13.610;2022-09-09T05:05:42;2.97;;;2.28;;
40286;SDS011;25998;46.604;13.610;2022-09-09T05:08:56;4.05;;;2.42;;
40286;SDS011;25998;46.604;13.610;2022-09-09T05:12:08;4.75;;;2.90;;
40286;SDS011;25998;46.604;13.610;2022-09-09T05:15:18;3.78;;;2.38;;
40286;SDS011;25998;46.604;13.610;2022-09-09T05:18:30;3.65;;;2.92;;
40286;SDS011;25998;46.604;13.610;2022-09-09T05:21:41;8.75;;;3.90;;
40286;SDS011;25998;46.604;13.610;2022-09-09T05:24:52;4.60;;;3.00;;
40286;SDS011;25998;46.604;13.610;2022-09-09T05:28:03;3.70;;;2.80;;
40286;SDS011;25998;46.604;13.610;2022-09-09T05:31:14;4.28;;;2.58;;
40286;SDS011;25998;46.604;13.610;2022-09-09T05:34:26;3.80;;;2.95;;
40286;SDS011;25998;46.604;13.610;2022-09-09T05:37:37;4.28;;;2.70;;
40286;SDS011;25998;46.604;13.610;2022-09-09T05:40:48;5.05;;;2.45;;
40286;SDS011;25998;46.604;13.610;2022-09-09T05:44:00;3.10;;;2.22;;
40286;SDS011;25998;46.604;13.610;2022-09-09T05:47:11;4.20;;;2.10;;
40286;SDS011;25998;46.604;13.610;2022-09-09T05:50:22;3.38;;;2.10;;
40286;SDS011;25998;46.604;13.610;2022-09-09T05:53:33;4.43;;;2.42;;
40286;SDS011;25998;46.604;13.610;2022-09-09T05:56:44;3.75;;;2.10;;
40286;SDS011;25998;46.604;13.610;2022-09-09T05:59:55;4.22;;;2.45;;
40286;SDS011;25998;46.604;13.610;2022-09-09T06:03:06;3.00;;;2.20;;
40286;SDS011;25998;46.604;13.610;2022-09-09T06:06:20;5.45;;;2.58;;
40286;SDS011;25998;46.604;13.610;2022-09-09T06:09:34;4.55;;;2.53;;
40286;SDS011;25998;46.604;13.610;2022-09-09T06:12:45;3.55;;;2.45;;
40286;SDS011;25998;46.604;13.610;2022-09-09T06:15:55;4.22;;;2.60;;
40286;SDS011;25998;46.604;13.610;2022-09-09T06:19:07;4.10;;;2.40;;
40286;SDS011;25998;46.604;13.610;2022-09-09T06:22:18;4.38;;;2.70;;
40286;SDS011;25998;46.604;13.610;2022-09-09T06:25:29;4.85;;;2.30;;
40286;SDS011;25998;46.604;13.610;2022-09-09T06:28:40;4.78;;;2.38;;
40286;SDS011;25998;46.604;13.610;2022-09-09T06:31:52;2.53;;;1.85;;
40286;SDS011;25998;46.604;13.610;2022-09-09T06:35:03;2.95;;;1.83;;
40286;SDS011;25998;46.604;13.610;2022-09-09T06:38:14;3.33;;;1.95;;
40286;SDS011;25998;46.604;13.610;2022-09-09T06:41:26;4.72;;;1.80;;
40286;SDS011;25998;46.604;13.610;2022-09-09T06:44:39;6.50;;;1.90;;
40286;SDS011;25998;46.604;13.610;2022-09-09T06:47:49;3.05;;;1.77;;
40286;SDS011;25998;46.604;13.610;2022-09-09T06:51:04;2.90;;;1.75;;
40286;SDS011;25998;46.604;13.610;2022-09-09T06:54:17;4.25;;;2.03;;
40286;SDS011;25998;46.604;13.610;2022-09-09T06:57:29;4.32;;;2.05;;
40286;SDS011;25998;46.604;13.610;2022-09-09T07:00:40;4.28;;;1.60;;
40286;SDS011;25998;46.604;13.610;2022-09-09T07:03:53;5.15;;;2.20;;
40286;SDS011;25998;46.604;13.610;2022-09-09T07:07:05;4.05;;;2.22;;
40286;SDS011;25998;46.604;13.610;2022-09-09T07:10:16;3.95;;;1.92;;
40286;SDS011;25998;46.604;13.610;2022-09-09T07:13:27;6.45;;;2.65;;
40286;SDS011;25998;46.604;13.610;2022-09-09T07:16:38;3.08;;;2.03;;
40286;SDS011;25998;46.604;13.610;2022-09-09T07:19:49;2.45;;;2.00;;
40286;SDS011;25998;46.604;13.610;2022-09-09T07:23:00;5.00;;;2.55;;
40286;SDS011;25998;46.604;13.610;2022-09-09T07:26:12;3.05;;;2.30;;
40286;SDS011;25998;46.604;13.610;2022-09-09T07:29:24;3.92;;;2.60;;
40286;SDS011;25998;46.604;13.610;2022-09-09T07:32:35;3.22;;;2.25;;
40286;SDS011;25998;46.604;13.610;2022-09-09T07:35:46;2.60;;;1.92;;
40286;SDS011;25998;46.604;13.610;2022-09-09T07:39:01;5.28;;;2.85;;
40286;SDS011;25998;46.604;13.610;2022-09-09T07:42:14;2.97;;;2.47;;
40286;SDS011;25998;46.604;13.610;2022-09-09T07:45:26;4.60;;;2.30;;
40286;SDS011;25998;46.604;13.610;2022-09-09T07:48:44;4.05;;;2.45;;
40286;SDS011;25998;46.604;13.610;2022-09-09T07:51:56;3.92;;;2.60;;
40286;SDS011;25998;46.604;13.610;2022-09-09T07:55:07;2.92;;;2.55;;
40286;SDS011;25998;46.604;13.610;2022-09-09T07:58:19;4.47;;;2.78;;
40286;SDS011;25998;46.604;13.610;2022-09-09T08:01:32;3.63;;;2.45;;
40286;SDS011;25998;46.604;13.610;2022-09-09T08:04:47;5.05;;;3.22;;
40286;SDS011;25998;46.604;13.610;2022-09-09T08:07:58;3.58;;;2.50;;
40286;SDS011;25998;46.604;13.610;2022-09-09T08:11:11;5.63;;;2.70;;
40286;SDS011;25998;46.604;13.610;2022-09-09T08:14:23;3.85;;;2.85;;
40286;SDS011;25998;46.604;13.610;2022-09-09T08:17:35;5.45;;;2.67;;
40286;SDS011;25998;46.604;13.610;2022-09-09T08:20:48;3.47;;;2.30;;
40286;SDS011;25998;46.604;13.610;2022-09-09T08:23:59;3.20;;;2.30;;
40286;SDS011;25998;46.604;13.610;2022-09-09T08:27:11;3.85;;;2.88;;
40286;SDS011;25998;46.604;13.610;2022-09-09T08:30:23;5.53;;;2.95;;
40286;SDS011;25998;46.604;13.610;2022-09-09T08:33:33;4.70;;;2.90;;
40286;SDS011;25998;46.604;13.610;2022-09-09T08:36:47;3.63;;;2.70;;
40286;SDS011;25998;46.604;13.610;2022-09-09T08:39:59;5.55;;;2.60;;
40286;SDS011;25998;46.604;13.610;2022-09-09T08:43:10;4.40;;;2.83;;
40286;SDS011;25998;46.604;13.610;2022-09-09T08:46:33;3.70;;;2.53;;
40286;SDS011;25998;46.604;13.610;2022-09-09T08:49:59;5.88;;;3.00;;
40286;SDS011;25998;46.604;13.610;2022-09-09T08:53:22;4.07;;;2.38;;
40286;SDS011;25998;46.604;13.610;2022-09-09T08:56:36;4.97;;;2.55;;
40286;SDS011;25998;46.604;13.610;2022-09-09T08:59:47;3.90;;;2.63;;
40286;SDS011;25998;46.604;13.610;2022-09-09T09:13:54;3.05;;;2.05;;
40286;SDS011;25998;46.604;13.610;2022-09-09T09:17:17;4.57;;;2.13;;
40286;SDS011;25998;46.604;13.610;2022-09-09T09:23:55;4.15;;;2.00;;
40286;SDS011;25998;46.604;13.610;2022-09-09T09:27:31;3.58;;;2.10;;
40286;SDS011;25998;46.604;13.610;2022-09-09T09:30:50;3.38;;;2.10;;
40286;SDS011;25998;46.604;13.610;2022-09-09T09:34:09;2.60;;;1.85;;
40286;SDS011;25998;46.604;13.610;2022-09-09T09:37:26;3.40;;;2.15;;
40286;SDS011;25998;46.604;13.610;2022-09-09T09:44:24;2.80;;;2.00;;
40286;SDS011;25998;46.604;13.610;2022-09-09T09:47:37;3.00;;;1.90;;
40286;SDS011;25998;46.604;13.610;2022-09-09T09:50:52;2.50;;;1.70;;
40286;SDS011;25998;46.604;13.610;2022-09-09T09:54:14;3.50;;;2.10;;
40286;SDS011;25998;46.604;13.610;2022-09-09T09:57:39;3.47;;;2.08;;
40286;SDS011;25998;46.604;13.610;2022-09-09T10:00:51;2.88;;;1.60;;
40286;SDS011;25998;46.604;13.610;2022-09-09T10:04:22;9.35;;;2.55;;
40286;SDS011;25998;46.604;13.610;2022-09-09T10:07:33;2.75;;;1.67;;
40286;SDS011;25998;46.604;13.610;2022-09-09T10:18:16;2.08;;;1.30;;
40286;SDS011;25998;46.604;13.610;2022-09-09T10:21:38;3.75;;;1.30;;
40286;SDS011;25998;46.604;13.610;2022-09-09T10:32:45;2.50;;;1.48;;
40286;SDS011;25998;46.604;13.610;2022-09-09T10:42:47;3.90;;;1.85;;
40286;SDS011;25998;46.604;13.610;2022-09-09T10:46:14;2.42;;;1.50;;
40286;SDS011;25998;46.604;13.610;2022-09-09T10:53:11;1.73;;;1.23;;
40286;SDS011;25998;46.604;13.610;2022-09-09T10:56:31;2.15;;;1.40;;
40286;SDS011;25998;46.604;13.610;2022-09-09T10:59:46;3.65;;;1.38;;
40286;SDS011;25998;46.604;13.610;2022-09-09T11:03:01;2.88;;;1.33;;
40286;SDS011;25998;46.604;13.610;2022-09-09T11:06:18;2.55;;;1.40;;
40286;SDS011;25998;46.604;13.610;2022-09-09T11:09:32;2.70;;;1.35;;
40286;SDS011;25998;46.604;13.610;2022-09-09T11:12:48;2.28;;;1.33;;
40286;SDS011;25998;46.604;13.610;2022-09-09T11:16:11;3.03;;;1.30;;
40286;SDS011;25998;46.604;13.610;2022-09-09T11:19:40;2.22;;;1.23;;
40286;SDS011;25998;46.604;13.610;2022-09-09T11:26:19;3.30;;;1.40;;
40286;SDS011;25998;46.604;13.610;2022-09-09T11:33:08;2.45;;;1.50;;
40286;SDS011;25998;46.604;13.610;2022-09-09T11:36:33;3.22;;;1.70;;
40286;SDS011;25998;46.604;13.610;2022-09-09T11:40:09;3.00;;;1.58;;
40286;SDS011;25998;46.604;13.610;2022-09-09T11:43:39;2.13;;;1.40;;
40286;SDS011;25998;46.604;13.610;2022-09-09T11:46:53;2.88;;;1.40;;
40286;SDS011;25998;46.604;13.610;2022-09-09T11:50:22;2.20;;;1.65;;
40286;SDS011;25998;46.604;13.610;2022-09-09T11:57:03;2.15;;;1.38;;
40286;SDS011;25998;46.604;13.610;2022-09-09T12:03:48;2.63;;;1.50;;
40286;SDS011;25998;46.604;13.610;2022-09-09T12:10:25;2.08;;;1.55;;
40286;SDS011;25998;46.604;13.610;2022-09-09T12:13:51;2.67;;;1.70;;
40286;SDS011;25998;46.604;13.610;2022-09-09T12:20:30;3.40;;;1.50;;
40286;SDS011;25998;46.604;13.610;2022-09-09T12:23:55;2.10;;;1.30;;
40286;SDS011;25998;46.604;13.610;2022-09-09T12:27:31;2.50;;;1.60;;
40286;SDS011;25998;46.604;13.610;2022-09-09T12:34:06;2.30;;;1.77;;
40286;SDS011;25998;46.604;13.610;2022-09-09T12:37:27;3.22;;;1.80;;
40286;SDS011;25998;46.604;13.610;2022-09-09T12:40:42;5.47;;;1.98;;
40286;SDS011;25998;46.604;13.610;2022-09-09T12:44:06;3.40;;;1.70;;
40286;SDS011;25998;46.604;13.610;2022-09-09T12:47:20;2.20;;;1.40;;
40286;SDS011;25998;46.604;13.610;2022-09-09T12:50:51;2.78;;;2.10;;
40286;SDS011;25998;46.604;13.610;2022-09-09T12:54:05;2.63;;;1.50;;
40286;SDS011;25998;46.604;13.610;2022-09-09T12:57:24;2.50;;;1.58;;
40286;SDS011;25998;46.604;13.610;2022-09-09T13:00:36;3.85;;;1.90;;
40286;SDS011;25998;46.604;13.610;2022-09-09T13:03:47;3.10;;;1.73;;
40286;SDS011;25998;46.604;13.610;2022-09-09T13:07:07;2.58;;;1.75;;
40286;SDS011;25998;46.604;13.610;2022-09-09T13:10:22;2.35;;;1.70;;
40286;SDS011;25998;46.604;13.610;2022-09-09T13:13:37;2.78;;;1.67;;
40286;SDS011;25998;46.604;13.610;2022-09-09T13:16:58;3.38;;;1.73;;
40286;SDS011;25998;46.604;13.610;2022-09-09T13:20:16;2.67;;;1.60;;
40286;SDS011;25998;46.604;13.610;2022-09-09T13:23:32;2.28;;;1.70;;
40286;SDS011;25998;46.604;13.610;2022-09-09T13:26:53;2.70;;;1.60;;
40286;SDS011;25998;46.604;13.610;2022-09-09T13:33:54;5.53;;;1.60;;
40286;SDS011;25998;46.604;13.610;2022-09-09T13:37:06;2.40;;;1.58;;
40286;SDS011;25998;46.604;13.610;2022-09-09T13:40:51;3.58;;;1.60;;
40286;SDS011;25998;46.604;13.610;2022-09-09T13:44:14;2.42;;;1.40;;
40286;SDS011;25998;46.604;13.610;2022-09-09T13:47:34;2.60;;;1.45;;
40286;SDS011;25998;46.604;13.610;2022-09-09T13:50:59;2.72;;;1.63;;
40286;SDS011;25998;46.604;13.610;2022-09-09T13:54:18;4.15;;;1.40;;
40286;SDS011;25998;46.604;13.610;2022-09-09T13:57:30;1.90;;;1.33;;
40286;SDS011;25998;46.604;13.610;2022-09-09T14:00:41;2.20;;;1.50;;
40286;SDS011;25998;46.604;13.610;2022-09-09T14:03:54;2.33;;;1.50;;
40286;SDS011;25998;46.604;13.610;2022-09-09T14:07:05;3.60;;;2.65;;
40286;SDS011;25998;46.604;13.610;2022-09-09T14:10:18;3.30;;;1.70;;
40286;SDS011;25998;46.604;13.610;2022-09-09T14:13:30;2.17;;;1.45;;
40286;SDS011;25998;46.604;13.610;2022-09-09T14:16:41;2.10;;;1.35;;
40286;SDS011;25998;46.604;13.610;2022-09-09T14:19:52;4.18;;;1.83;;
40286;SDS011;25998;46.604;13.610;2022-09-09T14:23:02;6.03;;;2.28;;
40286;SDS011;25998;46.604;13.610;2022-09-09T14:26:13;3.70;;;1.60;;
40286;SDS011;25998;46.604;13.610;2022-09-09T14:29:24;3.92;;;1.67;;
40286;SDS011;25998;46.604;13.610;2022-09-09T14:32:36;3.20;;;1.40;;
40286;SDS011;25998;46.604;13.610;2022-09-09T14:35:47;2.05;;;1.33;;
40286;SDS011;25998;46.604;13.610;2022-09-09T14:38:58;1.77;;;1.23;;
40286;SDS011;25998;46.604;13.610;2022-09-09T14:42:10;1.60;;;1.20;;
40286;SDS011;25998;46.604;13.610;2022-09-09T14:45:21;1.98;;;1.50;;
40286;SDS011;25998;46.604;13.610;2022-09-09T14:48:35;2.45;;;1.42;;
40286;SDS011;25998;46.604;13.610;2022-09-09T14:51:46;10.38;;;2.20;;
40286;SDS011;25998;46.604;13.610;2022-09-09T14:54:57;2.00;;;1.30;;
40286;SDS011;25998;46.604;13.610;2022-09-09T14:58:08;7.10;;;1.70;;
40286;SDS011;25998;46.604;13.610;2022-09-09T15:01:19;3.60;;;1.40;;
40286;SDS011;25998;46.604;13.610;2022-09-09T15:04:33;2.53;;;1.33;;
40286;SDS011;25998;46.604;13.610;2022-09-09T15:07:44;4.93;;;1.73;;
40286;SDS011;25998;46.604;13.610;2022-09-09T15:10:59;4.68;;;1.60;;
40286;SDS011;25998;46.604;13.610;2022-09-09T15:14:11;2.60;;;1.50;;
40286;SDS011;25998;46.604;13.610;2022-09-09T15:17:22;3.10;;;1.50;;
40286;SDS011;25998;46.604;13.610;2022-09-09T15:20:37;3.83;;;1.52;;
40286;SDS011;25998;46.604;13.610;2022-09-09T15:23:48;2.88;;;1.42;;
40286;SDS011;25998;46.604;13.610;2022-09-09T15:26:59;4.93;;;1.30;;
40286;SDS011;25998;46.604;13.610;2022-09-09T15:30:11;3.58;;;1.60;;
40286;SDS011;25998;46.604;13.610;2022-09-09T15:33:22;1.90;;;1.33;;
40286;SDS011;25998;46.604;13.610;2022-09-09T15:36:34;2.10;;;1.38;;
40286;SDS011;25998;46.604;13.610;2022-09-09T15:39:50;2.75;;;1.77;;
40286;SDS011;25998;46.604;13.610;2022-09-09T15:43:00;5.35;;;1.95;;
40286;SDS011;25998;46.604;13.610;2022-09-09T15:46:23;3.22;;;1.60;;
40286;SDS011;25998;46.604;13.610;2022-09-09T15:49:38;3.33;;;1.77;;
40286;SDS011;25998;46.604;13.610;2022-09-09T15:52:49;2.47;;;1.60;;
40286;SDS011;25998;46.604;13.610;2022-09-09T15:56:02;3.55;;;2.10;;
40286;SDS011;25998;46.604;13.610;2022-09-09T15:59:13;4.38;;;2.85;;
40286;SDS011;25998;46.604;13.610;2022-09-09T16:02:25;4.00;;;2.70;;
40286;SDS011;25998;46.604;13.610;2022-09-09T16:05:36;8.68;;;4.70;;
40286;SDS011;25998;46.604;13.610;2022-09-09T16:08:47;4.15;;;3.28;;
40286;SDS011;25998;46.604;13.610;2022-09-09T16:12:02;3.45;;;2.10;;
40286;SDS011;25998;46.604;13.610;2022-09-09T16:15:20;5.70;;;2.97;;
40286;SDS011;25998;46.604;13.610;2022-09-09T16:18:36;5.00;;;2.30;;
40286;SDS011;25998;46.604;13.610;2022-09-09T16:21:52;4.70;;;2.50;;
40286;SDS011;25998;46.604;13.610;2022-09-09T16:25:03;3.40;;;2.45;;
40286;SDS011;25998;46.604;13.610;2022-09-09T16:28:14;3.72;;;2.70;;
40286;SDS011;25998;46.604;13.610;2022-09-09T16:31:26;4.28;;;2.83;;
40286;SDS011;25998;46.604;13.610;2022-09-09T16:34:37;2.55;;;2.05;;
40286;SDS011;25998;46.604;13.610;2022-09-09T16:37:48;4.25;;;3.15;;
40286;SDS011;25998;46.604;13.610;2022-09-09T16:40:59;3.45;;;2.72;;
40286;SDS011;25998;46.604;13.610;2022-09-09T16:44:10;3.88;;;2.88;;
40286;SDS011;25998;46.604;13.610;2022-09-09T16:47:22;5.65;;;3.30;;
40286;SDS011;25998;46.604;13.610;2022-09-09T16:50:33;3.38;;;2.70;;
40286;SDS011;25998;46.604;13.610;2022-09-09T16:53:44;3.80;;;2.22;;
40286;SDS011;25998;46.604;13.610;2022-09-09T16:56:55;6.63;;;3.60;;
40286;SDS011;25998;46.604;13.610;2022-09-09T17:00:07;3.63;;;2.42;;
40286;SDS011;25998;46.604;13.610;2022-09-09T17:03:18;3.70;;;2.45;;
40286;SDS011;25998;46.604;13.610;2022-09-09T17:06:30;3.15;;;2.70;;
40286;SDS011;25998;46.604;13.610;2022-09-09T17:09:46;4.00;;;2.67;;
40286;SDS011;25998;46.604;13.610;2022-09-09T17:12:57;3.97;;;2.47;;
40286;SDS011;25998;46.604;13.610;2022-09-09T17:16:09;5.05;;;2.72;;
40286;SDS011;25998;46.604;13.610;2022-09-09T17:19:20;4.88;;;2.80;;
40286;SDS011;25998;46.604;13.610;2022-09-09T17:22:30;5.35;;;2.50;;
40286;SDS011;25998;46.604;13.610;2022-09-09T17:25:42;4.00;;;2.80;;
40286;SDS011;25998;46.604;13.610;2022-09-09T17:28:53;5.05;;;2.55;;
40286;SDS011;25998;46.604;13.610;2022-09-09T17:32:06;5.28;;;2.45;;
40286;SDS011;25998;46.604;13.610;2022-09-09T17:35:17;4.85;;;2.30;;
40286;SDS011;25998;46.604;13.610;2022-09-09T17:38:28;6.60;;;2.92;;
40286;SDS011;25998;46.604;13.610;2022-09-09T17:41:39;3.55;;;2.33;;
40286;SDS011;25998;46.604;13.610;2022-09-09T17:44:51;7.03;;;2.50;;
40286;SDS011;25998;46.604;13.610;2022-09-09T17:48:01;5.03;;;2.03;;
40286;SDS011;25998;46.604;13.610;2022-09-09T17:51:15;2.80;;;1.85;;
40286;SDS011;25998;46.604;13.610;2022-09-09T17:54:29;5.68;;;2.15;;
40286;SDS011;25998;46.604;13.610;2022-09-09T17:57:40;3.80;;;2.30;;
40286;SDS011;25998;46.604;13.610;2022-09-09T18:00:50;4.13;;;2.00;;
40286;SDS011;25998;46.604;13.610;2022-09-09T18:04:02;6.15;;;2.30;;
40286;SDS011;25998;46.604;13.610;2022-09-09T18:07:14;4.68;;;2.10;;
40286;SDS011;25998;46.604;13.610;2022-09-09T18:10:25;3.03;;;1.83;;
40286;SDS011;25998;46.604;13.610;2022-09-09T18:13:36;2.45;;;1.60;;
40286;SDS011;25998;46.604;13.610;2022-09-09T18:16:47;3.78;;;1.75;;
40286;SDS011;25998;46.604;13.610;2022-09-09T18:19:58;4.07;;;1.80;;
40286;SDS011;25998;46.604;13.610;2022-09-09T18:23:09;4.13;;;1.83;;
40286;SDS011;25998;46.604;13.610;2022-09-09T18:26:21;3.30;;;1.70;;
40286;SDS011;25998;46.604;13.610;2022-09-09T18:29:33;4.18;;;1.80;;
40286;SDS011;25998;46.604;13.610;2022-09-09T18:32:44;2.17;;;1.30;;
40286;SDS011;25998;46.604;13.610;2022-09-09T18:36:03;2.35;;;1.70;;
40286;SDS011;25998;46.604;13.610;2022-09-09T18:39:25;5.57;;;2.00;;
40286;SDS011;25998;46.604;13.610;2022-09-09T18:42:37;5.05;;;2.10;;
40286;SDS011;25998;46.604;13.610;2022-09-09T18:45:48;2.50;;;1.55;;
40286;SDS011;25998;46.604;13.610;2022-09-09T18:48:59;4.78;;;1.60;;
40286;SDS011;25998;46.604;13.610;2022-09-09T18:52:10;2.30;;;1.40;;
40286;SDS011;25998;46.604;13.610;2022-09-09T18:55:20;2.55;;;1.40;;
40286;SDS011;25998;46.604;13.610;2022-09-09T18:58:32;4.38;;;1.80;;
40286;SDS011;25998;46.604;13.610;2022-09-09T19:01:44;3.38;;;1.60;;
40286;SDS011;25998;46.604;13.610;2022-09-09T19:04:56;3.20;;;1.30;;
40286;SDS011;25998;46.604;13.610;2022-09-09T19:08:06;3.45;;;2.08;;
40286;SDS011;25998;46.604;13.610;2022-09-09T19:11:18;2.72;;;1.52;;
40286;SDS011;25998;46.604;13.610;2022-09-09T19:14:31;2.25;;;1.50;;
40286;SDS011;25998;46.604;13.610;2022-09-09T19:17:42;3.30;;;2.20;;
40286;SDS011;25998;46.604;13.610;2022-09-09T19:20:53;3.65;;;2.22;;
40286;SDS011;25998;46.604;13.610;2022-09-09T19:24:05;3.03;;;1.90;;
40286;SDS011;25998;46.604;13.610;2022-09-09T19:27:20;2.60;;;1.73;;
40286;SDS011;25998;46.604;13.610;2022-09-09T19:30:34;3.30;;;1.40;;
40286;SDS011;25998;46.604;13.610;2022-09-09T19:33:46;3.50;;;1.67;;
40286;SDS011;25998;46.604;13.610;2022-09-09T19:36:58;4.75;;;1.88;;
40286;SDS011;25998;46.604;13.610;2022-09-09T19:40:09;2.70;;;1.80;;
40286;SDS011;25998;46.604;13.610;2022-09-09T19:43:21;2.65;;;1.40;;
40286;SDS011;25998;46.604;13.610;2022-09-09T19:46:34;2.35;;;1.80;;
40286;SDS011;25998;46.604;13.610;2022-09-09T19:49:46;2.88;;;1.70;;
40286;SDS011;25998;46.604;13.610;2022-09-09T19:52:57;2.97;;;1.60;;
40286;SDS011;25998;46.604;13.610;2022-09-09T19:56:09;3.80;;;1.80;;
40286;SDS011;25998;46.604;13.610;2022-09-09T19:59:23;5.00;;;1.83;;
40286;SDS011;25998;46.604;13.610;2022-09-09T20:02:34;4.38;;;1.52;;
40286;SDS011;25998;46.604;13.610;2022-09-09T20:05:45;5.05;;;1.58;;
40286;SDS011;25998;46.604;13.610;2022-09-09T20:08:58;2.40;;;1.60;;
40286;SDS011;25998;46.604;13.610;2022-09-09T20:12:09;2.10;;;1.30;;
40286;SDS011;25998;46.604;13.610;2022-09-09T20:15:20;2.55;;;1.70;;
40286;SDS011;25998;46.604;13.610;2022-09-09T20:18:35;3.13;;;1.50;;
40286;SDS011;25998;46.604;13.610;2022-09-09T20:21:48;2.85;;;1.77;;
40286;SDS011;25998;46.604;13.610;2022-09-09T20:25:01;2.88;;;1.60;;
40286;SDS011;25998;46.604;13.610;2022-09-09T20:28:11;4.60;;;1.60;;
40286;SDS011;25998;46.604;13.610;2022-09-09T20:31:24;4.15;;;1.80;;
40286;SDS011;25998;46.604;13.610;2022-09-09T20:34:37;5.55;;;2.17;;
40286;SDS011;25998;46.604;13.610;2022-09-09T20:37:48;3.10;;;1.70;;
40286;SDS011;25998;46.604;13.610;2022-09-09T20:41:02;2.80;;;1.77;;
40286;SDS011;25998;46.604;13.610;2022-09-09T20:44:17;3.60;;;1.70;;
40286;SDS011;25998;46.604;13.610;2022-09-09T20:47:33;3.73;;;1.40;;
40286;SDS011;25998;46.604;13.610;2022-09-09T20:50:43;4.18;;;1.52;;
40286;SDS011;25998;46.604;13.610;2022-09-09T20:53:55;4.03;;;1.55;;
40286;SDS011;25998;46.604;13.610;2022-09-09T20:57:07;2.40;;;1.50;;
40286;SDS011;25998;46.604;13.610;2022-09-09T21:00:18;7.05;;;2.15;;